Canadair CRJ-200LR from Lufthansa Cityline at Dusseldorf.
 Regi:D-ACHD  LARGER
 MSN Year:7403 2000
 Date of picture:2006-08-17 11:10
 Discription:Named Lutherstadt Eisleben, stored CGN 2010-04.
 Position:M to 23L
 Flight: DEP BEG LH3410 Belgrade Airport Servia and Montenegro
 Logs: D-ACHD (CRJ2 LH) 1130 20060817 LH3410 (DUS-BEG) [somewhere]
 Metar 17/08/2006 10:50 METAR EDDL 171050Z 16007KT 9999 FEW019 SCT040TCU BKN070 20/16 Q1005 NOSIG=
 Hits: 279 ID: 407

Debriefing: Photographed movements of Airports in NW-Europe.
The images of our site attendant is in authorisation from Queen of Sky.
Copying of images of this site have been prohibited in which manner without the authorisation of the photographer.
In behalf of the crew :"Thank you visiting us" - Contact
Factsheets Canadair, CRJ-200LR, Lufthansa Cityline, made by De Plane! © 2006 - 2022 All rights reserved


.